createdAt,value
2019-04-10T00:01:40.535Z,7.40
2019-04-10T00:04:15.781Z,7.40
2019-04-10T00:06:48.002Z,7.30
2019-04-10T00:09:19.545Z,7.20
2019-04-10T00:11:53.418Z,7.10
2019-04-10T00:14:28.243Z,7.10
2019-04-10T00:17:00.938Z,7.00
2019-04-10T00:19:33.082Z,6.90
2019-04-10T00:22:06.294Z,6.90
2019-04-10T00:24:40.030Z,6.80
2019-04-10T00:27:16.685Z,6.80
2019-04-10T00:29:50.463Z,6.80
2019-04-10T00:32:23.735Z,6.70
2019-04-10T00:34:58.185Z,6.70
2019-04-10T00:37:32.400Z,6.60
2019-04-10T00:40:03.372Z,6.60
2019-04-10T00:42:34.871Z,6.50
2019-04-10T00:45:09.154Z,6.50
2019-04-10T00:47:46.187Z,6.40
2019-04-10T00:50:18.784Z,6.30
2019-04-10T00:52:49.094Z,6.30
2019-04-10T00:55:19.750Z,6.20
2019-04-10T00:57:54.610Z,6.20
2019-04-10T01:00:26.147Z,6.10
2019-04-10T01:02:58.857Z,6.10
2019-04-10T01:05:31.785Z,6.10
2019-04-10T01:08:04.854Z,6.10
2019-04-10T01:10:36.621Z,6.00
2019-04-10T01:13:08.372Z,6.10
2019-04-10T01:15:40.607Z,6.00
2019-04-10T01:18:11.149Z,6.00
2019-04-10T01:20:45.036Z,6.00
2019-04-10T01:23:18.571Z,5.90
2019-04-10T01:25:49.164Z,5.90
2019-04-10T01:28:21.310Z,5.90
2019-04-10T01:30:57.473Z,5.80
2019-04-10T01:33:28.416Z,5.90
2019-04-10T01:35:58.902Z,5.80
2019-04-10T01:38:29.853Z,5.80
2019-04-10T01:41:01.475Z,5.80
2019-04-10T01:43:35.123Z,5.80
2019-04-10T01:46:08.384Z,5.80
2019-04-10T01:48:39.801Z,5.80
2019-04-10T01:51:10.814Z,5.70
2019-04-10T01:53:41.972Z,5.70
2019-04-10T01:56:24.795Z,5.70
2019-04-10T01:58:49.633Z,5.60
2019-04-10T02:01:28.271Z,5.60
2019-04-10T02:04:00.560Z,5.60
2019-04-10T02:06:33.611Z,5.60
2019-04-10T02:09:05.288Z,5.60
2019-04-10T02:11:38.351Z,5.60
2019-04-10T02:14:08.944Z,5.60
2019-04-10T02:16:39.519Z,5.60
2019-04-10T02:19:16.438Z,5.60
2019-04-10T02:21:48.409Z,5.60
2019-04-10T02:24:19.224Z,5.60
2019-04-10T02:26:49.852Z,5.50
2019-04-10T02:29:21.597Z,5.50
2019-04-10T02:31:53.373Z,5.40
2019-04-10T02:34:28.880Z,5.30
2019-04-10T02:37:06.793Z,5.30
2019-04-10T02:39:42.413Z,5.20
2019-04-10T02:42:10.176Z,5.10
2019-04-10T02:44:41.656Z,5.10
2019-04-10T02:47:13.029Z,5.00
2019-04-10T02:49:47.101Z,5.00
2019-04-10T02:52:20.392Z,4.90
2019-04-10T02:54:51.285Z,4.90
2019-04-10T02:57:27.632Z,4.90
2019-04-10T03:00:03.715Z,4.80
2019-04-10T03:02:33.693Z,4.80
2019-04-10T03:05:07.288Z,4.80
2019-04-10T03:07:40.375Z,4.70
2019-04-10T03:10:23.253Z,4.70
2019-04-10T03:12:46.276Z,4.60
2019-04-10T03:15:25.190Z,4.60
2019-04-10T03:18:04.176Z,4.60
2019-04-10T03:20:38.485Z,4.60
2019-04-10T03:23:12.021Z,4.50
2019-04-10T03:25:45.458Z,4.50
2019-04-10T03:28:16.671Z,4.50
2019-04-10T03:30:49.406Z,4.40
2019-04-10T03:33:33.769Z,4.40
2019-04-10T03:36:05.271Z,4.40
2019-04-10T03:38:53.492Z,4.40
2019-04-10T03:41:12.241Z,4.40
2019-04-10T03:43:43.814Z,4.40
2019-04-10T03:46:21.862Z,4.40
2019-04-10T03:48:55.633Z,4.40
2019-04-10T03:51:26.479Z,4.30
2019-04-10T03:53:57.061Z,4.20
2019-04-10T03:56:27.957Z,4.20
2019-04-10T03:59:02.155Z,4.20
2019-04-10T04:01:35.670Z,4.10
2019-04-10T04:04:07.051Z,4.10
2019-04-10T04:06:39.849Z,4.10
2019-04-10T04:09:13.550Z,4.00
2019-04-10T04:11:44.667Z,4.00
2019-04-10T04:14:17.448Z,3.90
2019-04-10T04:16:49.130Z,3.90
2019-04-10T04:19:20.123Z,3.90
2019-04-10T04:22:01.093Z,3.80
2019-04-10T04:24:54.279Z,3.80
2019-04-10T04:27:53.808Z,3.80
2019-04-10T04:30:31.987Z,3.80
2019-04-10T04:33:04.799Z,3.80
2019-04-10T04:35:35.059Z,3.70
2019-04-10T04:38:07.088Z,3.70
2019-04-10T04:40:44.239Z,3.70
2019-04-10T04:43:14.978Z,3.80
2019-04-10T04:45:48.212Z,3.80
2019-04-10T04:48:22.132Z,3.80
2019-04-10T04:51:03.932Z,3.70
2019-04-10T04:53:37.977Z,3.70
2019-04-10T04:56:11.416Z,3.70
2019-04-10T04:58:47.539Z,3.70
2019-04-10T05:01:21.073Z,3.80
2019-04-10T05:03:52.599Z,3.80
2019-04-10T05:06:25.024Z,3.90
2019-04-10T05:08:56.850Z,3.90
2019-04-10T05:11:38.425Z,4.00
2019-04-10T05:14:13.885Z,4.00
2019-04-10T05:16:46.206Z,4.10
2019-04-10T05:19:17.407Z,4.10
2019-04-10T05:21:48.233Z,4.20
2019-04-10T05:24:22.263Z,4.20
2019-04-10T05:26:53.630Z,4.20
2019-04-10T05:29:25.067Z,4.30
2019-04-10T05:31:58.787Z,4.40
2019-04-10T05:34:30.669Z,4.70
2019-04-10T05:37:03.141Z,5.00
2019-04-10T05:39:41.347Z,5.20
2019-04-10T05:42:08.467Z,5.30
2019-04-10T05:44:40.190Z,5.40
2019-04-10T05:47:19.223Z,5.40
2019-04-10T05:49:50.129Z,5.40
2019-04-10T05:52:23.522Z,5.40
2019-04-10T05:54:59.947Z,5.30
2019-04-10T05:57:39.059Z,5.40
2019-04-10T06:00:10.954Z,5.40
2019-04-10T06:02:41.862Z,5.30
2019-04-10T06:05:16.265Z,5.30
2019-04-10T06:07:47.549Z,5.40
2019-04-10T06:10:19.761Z,5.40
2019-04-10T06:12:52.896Z,5.50
2019-04-10T06:15:23.197Z,5.50
2019-04-10T06:17:54.588Z,5.40
2019-04-10T06:20:25.191Z,5.50
2019-04-10T06:23:01.410Z,5.50
2019-04-10T06:25:34.059Z,5.60
2019-04-10T06:28:05.252Z,5.60
2019-04-10T06:30:36.343Z,5.60
2019-04-10T06:33:12.310Z,5.60
2019-04-10T06:35:46.944Z,5.70
2019-04-10T06:38:21.030Z,5.80
2019-04-10T06:40:52.360Z,5.90
2019-04-10T06:43:23.716Z,6.00
2019-04-10T06:45:57.850Z,6.10
2019-04-10T06:48:28.511Z,6.20
2019-04-10T06:50:59.843Z,6.20
2019-04-10T06:53:33.259Z,6.10
2019-04-10T06:56:04.882Z,6.00
2019-04-10T06:58:36.031Z,6.00
2019-04-10T07:01:08.276Z,6.10
2019-04-10T07:03:52.787Z,6.10
2019-04-10T07:06:20.792Z,6.10
2019-04-10T07:08:53.348Z,6.10
2019-04-10T07:11:30.445Z,6.20
2019-04-10T07:14:04.911Z,6.20
2019-04-10T07:16:42.209Z,6.30
2019-04-10T07:19:17.781Z,6.40
2019-04-10T07:22:09.854Z,6.50
2019-04-10T07:24:42.500Z,6.60
2019-04-10T07:27:16.052Z,6.80
2019-04-10T07:29:53.898Z,6.80
2019-04-10T07:32:33.914Z,6.90
2019-04-10T07:35:05.327Z,7.00
2019-04-10T07:37:44.446Z,7.00
2019-04-10T07:40:18.638Z,6.90
2019-04-10T07:43:07.338Z,7.00
2019-04-10T07:45:39.944Z,7.10
2019-04-10T07:48:18.458Z,7.20
2019-04-10T07:50:55.869Z,7.20
2019-04-10T07:53:30.892Z,7.30
2019-04-10T07:56:13.557Z,7.30
2019-04-10T07:58:51.663Z,7.30
2019-04-10T08:01:27.360Z,7.30
2019-04-10T08:04:01.867Z,7.40
2019-04-10T08:06:33.239Z,7.40
2019-04-10T08:09:10.543Z,7.40
2019-04-10T08:11:42.936Z,7.50
2019-04-10T08:14:14.840Z,7.60
2019-04-10T08:16:57.748Z,7.60
2019-04-10T08:19:32.829Z,7.80
2019-04-10T08:22:06.607Z,8.00
2019-04-10T08:24:49.818Z,8.10
2019-04-10T08:27:19.800Z,8.20
2019-04-10T08:29:54.881Z,8.30
2019-04-10T08:32:27.643Z,8.30
2019-04-10T08:35:11.200Z,8.40
2019-04-10T08:37:50.712Z,8.40
2019-04-10T08:40:52.304Z,8.50
2019-04-10T08:43:43.627Z,8.70
2019-04-10T08:46:33.659Z,8.80
2019-04-10T08:49:08.305Z,8.80
2019-04-10T08:51:41.723Z,8.80
2019-04-10T08:54:14.644Z,8.80
2019-04-10T08:56:45.343Z,8.80
2019-04-10T08:59:23.829Z,8.90
2019-04-10T09:01:56.084Z,9.00
2019-04-10T09:04:29.237Z,9.10
2019-04-10T09:07:04.278Z,9.30
2019-04-10T09:09:39.451Z,9.30
2019-04-10T09:12:31.666Z,9.30
2019-04-10T09:15:01.575Z,9.20
2019-04-10T09:17:39.735Z,9.20
2019-04-10T09:20:18.539Z,9.40
2019-04-10T09:23:13.456Z,9.60
2019-04-10T09:25:28.519Z,9.70
2019-04-10T09:28:40.657Z,9.70
2019-04-10T09:31:20.501Z,9.70
2019-04-10T09:36:54.162Z,9.70
2019-04-10T09:39:39.139Z,9.80
2019-04-10T09:42:19.405Z,9.80
2019-04-10T09:44:52.819Z,9.80
2019-04-10T09:47:24.806Z,9.80
2019-04-10T09:49:57.966Z,9.80
2019-04-10T09:52:28.583Z,9.80
2019-04-10T09:54:59.652Z,9.80
2019-04-10T09:57:30.562Z,9.90
2019-04-10T10:00:05.417Z,10.00
2019-04-10T10:03:00.111Z,10.10
2019-04-10T10:05:31.099Z,10.20
2019-04-10T10:08:11.577Z,10.20
2019-04-10T10:10:50.268Z,10.10
2019-04-10T10:13:31.853Z,10.10
2019-04-10T10:16:23.983Z,10.20
2019-04-10T10:19:07.857Z,10.20
2019-04-10T10:21:35.067Z,10.30
2019-04-10T10:24:10.712Z,10.40
2019-04-10T10:26:46.061Z,10.30
2019-04-10T10:29:21.782Z,10.40
2019-04-10T10:32:13.706Z,10.40
2019-04-10T10:34:50.425Z,10.60
2019-04-10T10:37:22.171Z,10.70
2019-04-10T10:39:57.375Z,10.60
2019-04-10T10:42:38.481Z,10.60
2019-04-10T10:45:12.457Z,10.70
2019-04-10T10:47:44.958Z,10.80
2019-04-10T10:50:22.103Z,10.80
2019-04-10T10:52:57.988Z,10.90
2019-04-10T10:55:29.618Z,11.00
2019-04-10T10:58:03.732Z,10.90
2019-04-10T11:00:35.491Z,10.70
2019-04-10T11:03:18.187Z,10.70
2019-04-10T11:05:50.723Z,10.60
2019-04-10T11:08:29.352Z,10.70
2019-04-10T11:11:02.791Z,10.80
2019-04-10T11:13:39.589Z,10.90
2019-04-10T11:16:13.070Z,11.00
2019-04-10T11:18:51.085Z,11.10
2019-04-10T11:21:24.821Z,11.20
2019-04-10T11:24:04.672Z,11.20
2019-04-10T11:26:38.406Z,11.30
2019-04-10T11:29:11.874Z,11.40
2019-04-10T11:31:42.846Z,11.30
2019-04-10T11:34:16.580Z,11.20
2019-04-10T11:37:15.617Z,11.20
2019-04-10T11:39:31.651Z,11.20
2019-04-10T11:41:57.832Z,11.30
2019-04-10T11:44:34.742Z,11.40
2019-04-10T11:47:10.486Z,11.50
2019-04-10T11:49:43.415Z,11.50
2019-04-10T11:52:19.017Z,11.50
2019-04-10T11:54:49.170Z,11.60
2019-04-10T11:57:22.884Z,11.50
2019-04-10T12:00:06.579Z,11.50
2019-04-10T12:02:39.648Z,11.50
2019-04-10T12:05:20.083Z,11.60
2019-04-10T12:08:21.075Z,11.70
2019-04-10T12:13:20.396Z,12.00
2019-04-10T12:16:51.565Z,12.00
2019-04-10T12:19:25.029Z,12.00
2019-04-10T12:21:56.077Z,11.80
2019-04-10T12:24:26.928Z,11.90
2019-04-10T12:27:07.141Z,11.80
2019-04-10T12:29:42.532Z,11.80
2019-04-10T12:32:13.074Z,11.80
2019-04-10T12:35:02.142Z,12.00
2019-04-10T12:37:39.631Z,12.10
2019-04-10T12:40:11.832Z,12.10
2019-04-10T12:42:44.205Z,12.10
2019-04-10T12:45:16.275Z,12.20
2019-04-10T12:47:50.257Z,12.40
2019-04-10T12:50:22.860Z,12.40
2019-04-10T12:52:54.738Z,12.40
2019-04-10T12:55:34.611Z,12.30
2019-04-10T12:58:15.880Z,12.30
2019-04-10T13:00:54.059Z,12.30
2019-04-10T13:03:31.357Z,12.40
2019-04-10T13:06:33.905Z,12.30
2019-04-10T13:10:02.555Z,12.30
2019-04-10T13:12:47.232Z,12.20
2019-04-10T13:15:27.660Z,12.40
2019-04-10T13:18:23.130Z,12.60
2019-04-10T13:20:57.976Z,12.60
2019-04-10T13:23:33.147Z,12.60
2019-04-10T13:26:24.238Z,12.60
2019-04-10T13:28:58.025Z,12.70
2019-04-10T13:31:33.109Z,12.80
2019-04-10T13:34:15.303Z,12.80
2019-04-10T13:37:24.999Z,12.80
2019-04-10T13:39:59.058Z,12.80
2019-04-10T13:42:31.551Z,12.80
2019-04-10T13:45:02.864Z,12.80
2019-04-10T13:47:38.625Z,12.70
2019-04-10T13:50:10.557Z,12.50
2019-04-10T13:52:52.617Z,12.60
2019-04-10T13:55:24.364Z,12.50
2019-04-10T13:58:04.716Z,12.40
2019-04-10T14:00:40.029Z,12.50
2019-04-10T14:03:16.356Z,12.70
2019-04-10T14:05:52.883Z,12.80
2019-04-10T14:08:58.651Z,12.70
2019-04-10T14:11:17.439Z,12.80
2019-04-10T14:13:46.233Z,12.80
2019-04-10T14:16:20.863Z,12.50
2019-04-10T14:18:52.892Z,12.50
2019-04-10T14:21:27.278Z,12.50
2019-04-10T14:24:04.073Z,12.70
2019-04-10T14:26:52.199Z,12.80
2019-04-10T14:29:26.935Z,12.90
2019-04-10T14:32:03.211Z,12.90
2019-04-10T14:34:42.971Z,12.80
2019-04-10T14:37:21.199Z,12.60
2019-04-10T14:39:57.757Z,12.40
2019-04-10T14:42:32.783Z,12.30
2019-04-10T14:45:13.161Z,12.30
2019-04-10T14:47:47.644Z,12.20
2019-04-10T14:50:19.839Z,12.20
2019-04-10T14:52:53.843Z,12.20
2019-04-10T14:55:27.166Z,12.30
2019-04-10T14:57:59.146Z,12.50
2019-04-10T15:00:53.229Z,12.50
2019-04-10T15:03:28.577Z,12.60
2019-04-10T15:06:09.154Z,12.60
2019-04-10T15:08:48.795Z,12.60
2019-04-10T15:11:24.772Z,12.60
2019-04-10T15:13:55.875Z,12.60
2019-04-10T15:16:27.393Z,12.60
2019-04-10T15:19:00.301Z,12.50
2019-04-10T15:21:34.671Z,12.60
2019-04-10T15:24:07.013Z,12.60
2019-04-10T15:26:50.897Z,12.60
2019-04-10T15:29:47.591Z,12.60
2019-04-10T15:32:25.271Z,12.60
2019-04-10T15:35:00.439Z,12.50
2019-04-10T15:37:55.758Z,12.50
2019-04-10T15:40:42.015Z,12.40
2019-04-10T15:43:12.612Z,12.30
2019-04-10T15:45:46.328Z,12.30
2019-04-10T15:48:20.878Z,12.30
2019-04-10T15:50:54.244Z,12.30
2019-04-10T15:53:27.071Z,12.20
2019-04-10T15:56:01.296Z,12.10
2019-04-10T15:58:37.473Z,12.00
2019-04-10T16:01:18.099Z,11.90
2019-04-10T16:03:52.754Z,11.80
2019-04-10T16:06:25.118Z,11.80
2019-04-10T16:08:57.122Z,11.80
2019-04-10T16:11:42.045Z,11.80
2019-04-10T16:14:23.194Z,11.70
2019-04-10T16:17:22.900Z,11.70
2019-04-10T16:20:06.118Z,11.60
2019-04-10T16:22:46.752Z,11.60
2019-04-10T16:25:30.333Z,11.60
2019-04-10T16:28:06.262Z,11.50
2019-04-10T16:30:37.253Z,11.50
2019-04-10T16:33:11.189Z,11.50
2019-04-10T16:35:46.121Z,11.40
2019-04-10T16:38:18.869Z,11.50
2019-04-10T16:40:49.998Z,11.50
2019-04-10T16:43:22.315Z,11.50
2019-04-10T16:45:53.065Z,11.40
2019-04-10T16:48:34.249Z,11.30
2019-04-10T16:51:08.029Z,11.30
2019-04-10T16:53:39.488Z,11.20
2019-04-10T16:56:11.522Z,11.20
2019-04-10T16:58:42.989Z,11.20
2019-04-10T17:01:20.628Z,11.20
2019-04-10T17:03:53.034Z,11.10
2019-04-10T17:06:28.855Z,11.20
2019-04-10T17:09:02.637Z,11.10
2019-04-10T17:11:45.292Z,11.00
2019-04-10T17:14:23.812Z,11.00
2019-04-10T17:17:00.495Z,10.90
2019-04-10T17:19:46.612Z,10.90
2019-04-10T17:22:14.977Z,10.80
2019-04-10T17:25:20.160Z,10.80
2019-04-10T17:28:25.412Z,10.70
2019-04-10T17:31:36.213Z,10.70
2019-04-10T17:34:11.343Z,10.70
2019-04-10T17:37:01.208Z,10.60
2019-04-10T17:40:00.086Z,10.50
2019-04-10T17:42:44.180Z,10.50
2019-04-10T17:45:42.797Z,10.40
2019-04-10T17:48:05.582Z,10.30
2019-04-10T17:50:45.674Z,10.30
2019-04-10T17:53:25.197Z,10.20
2019-04-10T17:56:34.146Z,10.10
2019-04-10T17:59:16.798Z,10.10
2019-04-10T18:01:53.721Z,10.00
2019-04-10T18:04:27.696Z,10.00
2019-04-10T18:07:03.925Z,9.90
2019-04-10T18:09:36.823Z,9.80
2019-04-10T18:12:10.671Z,9.80
2019-04-10T18:14:53.892Z,9.80
2019-04-10T18:17:35.433Z,9.70
2019-04-10T18:20:16.367Z,9.60
2019-04-10T18:22:55.843Z,9.60
2019-04-10T18:25:31.181Z,9.50
2019-04-10T18:28:11.546Z,9.50
2019-04-10T18:30:54.999Z,9.40
2019-04-10T18:33:31.031Z,9.30
2019-04-10T18:36:03.166Z,9.30
2019-04-10T18:38:37.749Z,9.20
2019-04-10T18:41:11.748Z,9.10
2019-04-10T18:43:44.675Z,9.10
2019-04-10T18:46:23.889Z,9.10
2019-04-10T18:48:58.997Z,9.00
2019-04-10T18:51:40.694Z,9.00
2019-04-10T18:54:16.590Z,9.00
2019-04-10T18:57:11.700Z,8.90
2019-04-10T19:00:15.762Z,8.90
2019-04-10T19:03:13.022Z,8.80
2019-04-10T19:05:46.361Z,8.70
2019-04-10T19:08:21.855Z,8.70
2019-04-10T19:11:07.650Z,8.60
2019-04-10T19:13:25.246Z,8.60
2019-04-10T19:15:57.262Z,8.60
2019-04-10T19:18:29.890Z,8.50
2019-04-10T19:21:00.613Z,8.50
2019-04-10T19:23:33.084Z,8.40
2019-04-10T19:26:05.509Z,8.40
2019-04-10T19:28:41.889Z,8.30
2019-04-10T19:31:19.467Z,8.30
2019-04-10T19:33:49.237Z,8.20
2019-04-10T19:36:34.581Z,8.20
2019-04-10T19:39:07.908Z,8.10
2019-04-10T19:41:41.454Z,8.10
2019-04-10T19:44:14.982Z,8.00
2019-04-10T19:46:45.978Z,8.00
2019-04-10T19:49:20.375Z,8.00
2019-04-10T19:51:53.473Z,7.90
2019-04-10T19:54:24.165Z,7.90
2019-04-10T19:56:59.779Z,7.80
2019-04-10T20:00:22.137Z,7.80
2019-04-10T20:03:07.987Z,7.70
2019-04-10T20:05:49.463Z,7.70
2019-04-10T20:08:44.025Z,7.70
2019-04-10T20:11:35.903Z,7.70
2019-04-10T20:14:00.848Z,7.60
2019-04-10T20:16:57.794Z,7.60
2019-04-10T20:20:23.572Z,7.60
2019-04-10T20:23:02.665Z,7.50
2019-04-10T20:25:39.214Z,7.50
2019-04-10T20:28:24.680Z,7.40
2019-04-10T20:31:02.340Z,7.40
2019-04-10T20:33:39.204Z,7.40
2019-04-10T20:36:17.222Z,7.30
2019-04-10T20:39:25.350Z,7.30
2019-04-10T20:42:48.808Z,7.30
2019-04-10T20:46:30.479Z,7.30
2019-04-10T20:49:12.101Z,7.20
2019-04-10T20:52:13.522Z,7.10
2019-04-10T20:55:11.251Z,7.10
2019-04-10T20:58:29.475Z,7.00
2019-04-10T21:01:41.576Z,7.00
2019-04-10T21:07:44.138Z,6.90
2019-04-10T21:10:34.950Z,6.90
2019-04-10T21:13:19.019Z,6.90
2019-04-10T21:16:56.379Z,6.90
2019-04-10T21:19:40.878Z,6.90
2019-04-10T21:22:30.982Z,6.80
2019-04-10T21:28:50.277Z,6.80
2019-04-10T21:31:50.539Z,6.80
2019-04-10T21:35:37.108Z,6.80
2019-04-10T21:38:38.806Z,6.70
2019-04-10T21:41:53.566Z,6.70
2019-04-10T21:45:11.017Z,6.60
2019-04-10T21:47:55.993Z,6.60
2019-04-10T21:50:47.396Z,6.50
2019-04-10T21:53:22.263Z,6.50
2019-04-10T21:56:10.436Z,6.50
2019-04-10T21:58:42.582Z,6.50
2019-04-10T22:01:28.330Z,6.50
2019-04-10T22:04:32.889Z,6.40
2019-04-10T22:11:34.296Z,6.40
2019-04-10T22:14:15.610Z,6.30
2019-04-10T22:16:50.541Z,6.30
2019-04-10T22:19:32.270Z,6.30
2019-04-10T22:22:15.213Z,6.20
2019-04-10T22:24:54.736Z,6.20
2019-04-10T22:27:31.625Z,6.20
2019-04-10T22:30:08.353Z,6.10
2019-04-10T22:32:45.578Z,6.10
2019-04-10T22:35:17.472Z,6.10
2019-04-10T22:37:57.316Z,6.10
2019-04-10T22:40:29.140Z,6.10
2019-04-10T22:43:03.424Z,6.10
2019-04-10T22:45:34.093Z,6.10
2019-04-10T22:48:04.581Z,6.10
2019-04-10T22:50:41.492Z,6.10
2019-04-10T22:53:23.426Z,6.00
2019-04-10T22:55:58.366Z,6.00
2019-04-10T22:58:31.550Z,6.00
2019-04-10T23:01:02.792Z,5.90
2019-04-10T23:03:45.228Z,5.90
2019-04-10T23:06:24.922Z,5.90
2019-04-10T23:09:00.248Z,5.80
2019-04-10T23:11:52.322Z,5.90
2019-04-10T23:14:36.591Z,5.90
2019-04-10T23:17:10.728Z,5.80
2019-04-10T23:19:42.769Z,5.80
2019-04-10T23:22:15.235Z,5.80
2019-04-10T23:24:47.703Z,5.70
2019-04-10T23:27:19.897Z,5.70
2019-04-10T23:29:52.660Z,5.70
2019-04-10T23:32:27.023Z,5.70
2019-04-10T23:35:01.465Z,5.60
2019-04-10T23:37:33.050Z,5.60
2019-04-10T23:40:08.591Z,5.50
2019-04-10T23:42:41.368Z,5.50
2019-04-10T23:45:15.560Z,5.50
2019-04-10T23:47:48.697Z,5.50
2019-04-10T23:50:21.875Z,5.40
2019-04-10T23:52:52.906Z,5.40
2019-04-10T23:55:24.618Z,5.40
2019-04-10T23:57:58.431Z,5.30
